Time;durP1;ratioP1;P1;durP2;ratioP2;P2;SDS_P1;SDS_P2;PMS_P1;PMS_P2;Temp;Humidity;BMP_temperature;BMP_pressure;BME280_temperature;BME280_humidity;BME280_pressure;Samples;Min_cycle;Max_cycle;Signal;HPM_P1;HPM_P2
2022/09/17 00:00:59;;;;;;;2.17;1.20;;;;;;;10.77;100.00;99493.38;4977155;28;20035;-78
2022/09/17 00:03:27;;;;;;;1.77;1.30;;;;;;;10.81;100.00;99492.31;4939813;28;20047;-81
2022/09/17 00:06:06;;;;;;;4.25;1.65;;;;;;;10.70;100.00;99487.47;4951918;28;20066;-81
2022/09/17 00:08:35;;;;;;;2.50;1.48;;;;;;;10.70;100.00;99486.59;4925801;28;20039;-77
2022/09/17 00:11:06;;;;;;;2.72;1.33;;;;;;;10.66;100.00;99490.25;4953558;28;20055;-80
2022/09/17 00:13:33;;;;;;;1.55;1.10;;;;;;;10.63;100.00;99490.41;4943234;28;20504;-81
2022/09/17 00:16:00;;;;;;;1.83;1.30;;;;;;;10.69;100.00;99491.03;4929465;29;20421;-79
2022/09/17 00:18:26;;;;;;;2.65;1.05;;;;;;;10.57;100.00;99488.00;4937999;29;20043;-81
2022/09/17 00:20:53;;;;;;;2.42;1.10;;;;;;;10.60;100.00;99488.75;4966385;28;20043;-80
2022/09/17 00:23:20;;;;;;;1.48;1.20;;;;;;;10.62;100.00;99478.97;4944139;28;20039;-80
2022/09/17 00:25:46;;;;;;;1.95;1.40;;;;;;;10.46;100.00;99487.56;4940650;29;20040;-81
2022/09/17 00:28:13;;;;;;;2.78;1.60;;;;;;;10.51;100.00;99488.22;4933774;29;20043;-82
2022/09/17 00:30:44;;;;;;;3.28;1.45;;;;;;;10.53;100.00;99474.06;4934468;29;20502;-80
2022/09/17 00:33:13;;;;;;;2.38;1.40;;;;;;;10.57;100.00;99483.56;4951687;28;20047;-80
2022/09/17 00:35:40;;;;;;;3.22;1.67;;;;;;;10.55;100.00;99481.91;4937893;29;20039;-82
2022/09/17 00:38:07;;;;;;;3.15;2.05;;;;;;;10.54;100.00;99486.34;4951734;28;20035;-81
2022/09/17 00:40:34;;;;;;;3.35;1.80;;;;;;;10.65;100.00;99489.41;4931619;28;20065;-81
2022/09/17 00:43:01;;;;;;;3.33;1.73;;;;;;;10.57;100.00;99488.84;4934515;28;20054;-80
2022/09/17 00:45:28;;;;;;;2.92;1.92;;;;;;;10.73;100.00;99494.38;4930758;29;20102;-81
2022/09/17 00:48:01;;;;;;;8.90;2.25;;;;;;;10.67;100.00;99499.91;4935243;28;20039;-81
2022/09/17 00:50:30;;;;;;;11.25;2.72;;;;;;;10.50;100.00;99500.56;4926852;28;20038;-80
2022/09/17 00:53:03;;;;;;;3.53;2.15;;;;;;;10.50;100.00;99505.84;4949233;28;20075;-81
2022/09/17 00:55:33;;;;;;;2.75;1.50;;;;;;;10.42;100.00;99513.19;4937373;29;20039;-81
2022/09/17 00:58:02;;;;;;;4.47;2.50;;;;;;;10.49;100.00;99508.56;4943496;28;20050;-81
2022/09/17 01:00:29;;;;;;;2.72;1.83;;;;;;;10.47;100.00;99511.25;4918791;28;20050;-80
2022/09/17 01:02:57;;;;;;;3.10;1.80;;;;;;;10.48;100.00;99512.13;4950093;28;20114;-81
2022/09/17 01:05:44;;;;;;;2.70;1.80;;;;;;;10.51;100.00;99514.63;4918377;29;20043;-80
2022/09/17 01:08:47;;;;;;;4.85;2.08;;;;;;;10.50;100.00;99521.69;4939885;28;20133;-80
2022/09/17 01:11:33;;;;;;;2.47;1.60;;;;;;;10.51;100.00;99517.28;4963217;28;20043;-80
2022/09/17 01:14:03;;;;;;;2.33;1.63;;;;;;;10.52;100.00;99511.09;4947517;28;20053;-80
2022/09/17 01:16:55;;;;;;;4.15;2.00;;;;;;;10.66;100.00;99516.69;4931491;29;20059;-81
2022/09/17 01:20:06;;;;;;;2.83;1.73;;;;;;;10.65;100.00;99504.41;4963774;28;20397;-79
2022/09/17 01:22:41;;;;;;;1.95;1.60;;;;;;;10.66;100.00;99508.75;4917842;29;20047;-81
2022/09/17 01:25:23;;;;;;;3.70;2.05;;;;;;;10.75;100.00;99505.75;4948591;28;20129;-81
2022/09/17 01:28:24;;;;;;;3.85;1.95;;;;;;;10.80;100.00;99517.00;4947996;28;20098;-81
2022/09/17 01:31:04;;;;;;;4.00;2.25;;;;;;;10.78;100.00;99520.66;4952059;28;20102;-81
2022/09/17 01:33:33;;;;;;;5.32;2.60;;;;;;;10.87;100.00;99512.34;4939303;29;20046;-81
2022/09/17 01:36:21;;;;;;;4.15;2.60;;;;;;;10.89;100.00;99508.72;4967750;28;20095;-80
2022/09/17 01:39:01;;;;;;;4.57;2.42;;;;;;;10.84;100.00;99515.09;4950736;28;20500;-79
2022/09/17 01:41:42;;;;;;;3.45;2.25;;;;;;;10.82;100.00;99512.50;4951887;28;20035;-81
2022/09/17 01:44:28;;;;;;;3.45;2.10;;;;;;;10.87;100.00;99517.63;4948069;28;20103;-79
2022/09/17 01:47:15;;;;;;;4.65;2.35;;;;;;;10.87;100.00;99521.13;4948727;28;20047;-80
2022/09/17 01:49:47;;;;;;;5.85;2.47;;;;;;;10.83;100.00;99524.81;4956554;28;20063;-81
2022/09/17 01:52:15;;;;;;;7.47;3.40;;;;;;;10.92;100.00;99515.66;4930988;29;20646;-80
2022/09/17 01:54:50;;;;;;;4.55;3.28;;;;;;;10.94;100.00;99522.63;4951472;29;20042;-80
2022/09/17 01:57:41;;;;;;;5.50;2.63;;;;;;;10.97;100.00;99516.34;4949306;28;20039;-80
2022/09/17 02:00:13;;;;;;;7.40;3.00;;;;;;;10.93;100.00;99525.28;4947933;28;20675;-80
2022/09/17 02:03:02;;;;;;;9.23;4.03;;;;;;;11.04;100.00;99520.47;4931355;29;20050;-80
2022/09/17 02:05:52;;;;;;;5.72;3.30;;;;;;;11.08;100.00;99522.03;4929120;29;20167;-80
2022/09/17 02:08:21;;;;;;;4.50;3.00;;;;;;;11.03;100.00;99526.66;4952761;28;20090;-82
2022/09/17 02:10:56;;;;;;;6.57;3.92;;;;;;;11.05;100.00;99516.88;4939418;28;20051;-80
2022/09/17 02:13:43;;;;;;;7.38;3.70;;;;;;;11.05;100.00;99516.88;4926787;28;20055;-83
2022/09/17 02:16:23;;;;;;;6.75;3.50;;;;;;;11.09;100.00;99514.97;4913779;29;20048;-80
2022/09/17 02:19:13;;;;;;;7.72;4.00;;;;;;;11.14;100.00;99524.44;4969528;28;20045;-80
2022/09/17 02:21:46;;;;;;;7.63;4.13;;;;;;;11.12;100.00;99525.44;4933122;29;20107;-81
2022/09/17 02:24:20;;;;;;;5.80;3.60;;;;;;;11.13;100.00;99521.88;4947613;28;20046;-81
2022/09/17 02:26:58;;;;;;;8.15;4.40;;;;;;;11.26;100.00;99517.78;4936749;29;20051;-82
2022/09/17 02:29:32;;;;;;;9.35;5.13;;;;;;;11.34;100.00;99528.03;4920515;29;20120;-81
2022/09/17 02:31:59;;;;;;;11.00;4.35;;;;;;;11.32;100.00;99522.81;4949561;28;20046;-82
2022/09/17 02:34:28;;;;;;;8.07;3.53;;;;;;;11.24;100.00;99528.41;4936824;29;20094;-81
2022/09/17 02:36:57;;;;;;;7.75;4.13;;;;;;;11.29;100.00;99528.25;4951509;29;20643;-82
2022/09/17 02:39:24;;;;;;;8.10;4.10;;;;;;;11.29;100.00;99538.81;4938986;29;20058;-82
2022/09/17 02:41:58;;;;;;;9.27;4.15;;;;;;;11.30;100.00;99535.25;4937127;29;20105;-82
2022/09/17 02:44:44;;;;;;;10.07;4.50;;;;;;;11.46;100.00;99538.13;4938584;29;20114;-83
2022/09/17 02:47:37;;;;;;;10.60;4.32;;;;;;;11.47;100.00;99537.19;4927004;29;20051;-83
2022/09/17 02:50:39;;;;;;;6.75;5.03;;;;;;;11.49;100.00;99540.63;4954984;28;20090;-82
2022/09/17 02:53:45;;;;;;;11.35;4.80;;;;;;;11.52;100.00;99536.09;5034896;23;20041;-85
2022/09/17 02:56:27;;;;;;;8.38;4.70;;;;;;;11.58;100.00;99540.22;4992217;28;20143;-84
2022/09/17 02:59:00;;;;;;;10.00;5.35;;;;;;;11.49;100.00;99543.28;5005679;28;20069;-83
2022/09/17 03:01:48;;;;;;;15.38;6.45;;;;;;;11.59;100.00;99541.09;5024302;28;20045;-82
2022/09/17 03:04:16;;;;;;;13.90;5.40;;;;;;;11.59;100.00;99541.09;4995679;28;20429;-82
2022/09/17 03:06:46;;;;;;;9.20;5.80;;;;;;;11.53;100.00;99537.81;5011473;28;20048;-82
2022/09/17 03:09:13;;;;;;;11.90;5.97;;;;;;;11.71;100.00;99543.22;5014496;28;20045;-82
2022/09/17 03:11:41;;;;;;;15.23;6.38;;;;;;;11.60;100.00;99538.38;5011806;28;20045;-83
2022/09/17 03:14:08;;;;;;;15.20;5.70;;;;;;;11.64;100.00;99547.91;5011989;28;20037;-83
2022/09/17 03:16:34;;;;;;;9.98;5.40;;;;;;;11.65;100.00;99547.00;5011184;28;20088;-84
2022/09/17 03:19:01;;;;;;;12.38;5.78;;;;;;;11.64;100.00;99545.28;5009943;28;20557;-82
2022/09/17 03:21:28;;;;;;;11.63;5.82;;;;;;;11.66;100.00;99542.56;4995154;28;20042;-83
2022/09/17 03:23:54;;;;;;;11.27;5.38;;;;;;;11.63;100.00;99540.91;5009399;28;20088;-83
2022/09/17 03:26:22;;;;;;;14.43;6.78;;;;;;;11.71;100.00;99543.22;5017014;28;20454;-83
2022/09/17 03:28:48;;;;;;;13.93;6.10;;;;;;;11.62;100.00;99541.84;4997894;28;20088;-83
2022/09/17 03:31:15;;;;;;;13.30;5.97;;;;;;;11.74;100.00;99549.25;5024530;28;20212;-84
2022/09/17 03:33:41;;;;;;;10.43;5.55;;;;;;;11.62;100.00;99547.13;4998093;28;20076;-83
2022/09/17 03:36:08;;;;;;;13.18;5.72;;;;;;;11.66;100.00;99550.50;5013078;28;20498;-83
2022/09/17 03:38:37;;;;;;;13.05;6.15;;;;;;;11.68;100.00;99551.28;5015963;28;20037;-83
2022/09/17 03:41:06;;;;;;;11.35;5.75;;;;;;;11.60;100.00;99548.09;5014177;28;20048;-83
2022/09/17 03:43:33;;;;;;;7.55;5.32;;;;;;;11.60;100.00;99551.59;5003761;28;20053;-83
2022/09/17 03:46:00;;;;;;;14.05;5.72;;;;;;;11.62;100.00;99552.41;5026242;28;20103;-83
2022/09/17 03:48:28;;;;;;;12.43;5.78;;;;;;;11.65;100.00;99552.28;4983956;28;20041;-84
2022/09/17 03:50:55;;;;;;;11.63;5.80;;;;;;;11.63;100.00;99554.13;5010641;28;20045;-84
2022/09/17 03:53:22;;;;;;;11.57;5.82;;;;;;;11.69;100.00;99550.38;5009737;28;20077;-83
2022/09/17 03:55:49;;;;;;;9.98;5.00;;;;;;;11.69;100.00;99553.88;4968289;28;20096;-84
2022/09/17 03:58:15;;;;;;;16.98;5.50;;;;;;;11.64;100.00;99547.06;5004535;28;20096;-83
2022/09/17 04:00:42;;;;;;;11.70;5.07;;;;;;;11.73;100.00;99552.81;4992244;28;20485;-84
2022/09/17 04:03:09;;;;;;;8.55;5.03;;;;;;;11.66;100.00;99551.34;4966785;28;20033;-83
2022/09/17 04:05:35;;;;;;;9.82;5.40;;;;;;;11.68;100.00;99551.28;4990107;28;20527;-84
2022/09/17 04:08:04;;;;;;;10.65;5.13;;;;;;;11.70;100.00;99552.09;4982810;28;20034;-83
2022/09/17 04:10:31;;;;;;;10.10;4.95;;;;;;;11.70;100.00;99552.09;4992087;28;20041;-85
2022/09/17 04:12:57;;;;;;;11.50;5.28;;;;;;;11.66;100.00;99551.34;4992472;28;20050;-83
2022/09/17 04:15:24;;;;;;;12.15;4.88;;;;;;;11.64;100.00;99550.56;4988132;28;20054;-83
2022/09/17 04:17:54;;;;;;;13.63;5.05;;;;;;;11.63;100.00;99555.94;4994199;28;20487;-82
2022/09/17 04:20:21;;;;;;;12.38;6.00;;;;;;;11.57;100.00;99562.31;4987515;28;20096;-83
2022/09/17 04:22:47;;;;;;;8.60;5.32;;;;;;;11.63;100.00;99559.44;4985938;28;20094;-83
2022/09/17 04:25:14;;;;;;;9.95;4.68;;;;;;;11.65;100.00;99559.34;4978553;28;20050;-82
2022/09/17 04:27:41;;;;;;;14.38;5.22;;;;;;;11.56;100.00;99560.59;5010311;28;20416;-83
2022/09/17 04:30:08;;;;;;;9.60;4.20;;;;;;;11.49;100.00;99564.44;4990773;28;20046;-82
2022/09/17 04:32:34;;;;;;;13.30;4.45;;;;;;;11.55;100.00;99565.03;4992934;28;20221;-82
2022/09/17 04:35:01;;;;;;;8.23;3.85;;;;;;;11.57;100.00;99571.13;5007191;28;20050;-81
2022/09/17 04:37:28;;;;;;;7.60;4.38;;;;;;;11.52;100.00;99567.81;5000581;28;20077;-81
2022/09/17 04:39:55;;;;;;;7.43;4.05;;;;;;;11.62;100.00;99572.72;4976843;28;20037;-82
2022/09/17 04:42:22;;;;;;;9.68;4.40;;;;;;;11.68;100.00;99575.09;4967152;28;20066;-81
2022/09/17 04:44:48;;;;;;;8.15;4.28;;;;;;;11.68;100.00;99569.81;5007501;28;20150;-82
2022/09/17 04:47:15;;;;;;;6.93;3.97;;;;;;;11.58;100.00;99579.91;4995338;28;20046;-82
2022/09/17 04:49:41;;;;;;;7.32;4.40;;;;;;;11.63;100.00;99575.31;4989437;28;20049;-82
2022/09/17 04:52:08;;;;;;;8.75;4.72;;;;;;;11.62;100.00;99572.72;4977497;28;20041;-82
2022/09/17 04:54:35;;;;;;;6.18;3.97;;;;;;;11.53;100.00;99572.19;5008992;28;20072;-82
2022/09/17 04:57:02;;;;;;;6.90;3.85;;;;;;;11.60;100.00;99578.06;4995550;28;20407;-83
2022/09/17 04:59:28;;;;;;;9.18;3.95;;;;;;;11.65;100.00;99572.59;5011910;28;20168;-82
2022/09/17 05:01:55;;;;;;;11.27;4.75;;;;;;;11.75;100.00;99580.06;5000782;28;20093;-82
2022/09/17 05:04:22;;;;;;;8.95;4.63;;;;;;;11.63;100.00;99577.94;4994940;28;20099;-82
2022/09/17 05:06:48;;;;;;;12.60;5.22;;;;;;;11.60;100.00;99580.69;5016957;28;20410;-82
2022/09/17 05:09:15;;;;;;;7.50;3.97;;;;;;;11.62;100.00;99589.47;5011904;28;20038;-83
2022/09/17 05:11:42;;;;;;;9.52;4.88;;;;;;;11.62;100.00;99585.94;5006817;28;20045;-82
2022/09/17 05:14:09;;;;;;;9.60;5.07;;;;;;;11.64;100.00;99587.59;4990177;28;20477;-82
2022/09/17 05:16:35;;;;;;;8.55;4.20;;;;;;;11.66;100.00;99587.53;4985799;28;20042;-83
2022/09/17 05:19:03;;;;;;;9.15;4.65;;;;;;;11.66;100.00;99595.47;5012990;28;20137;-82
2022/09/17 05:21:29;;;;;;;10.50;4.13;;;;;;;11.62;100.00;99594.75;4994839;28;20041;-82
2022/09/17 05:23:56;;;;;;;8.63;3.47;;;;;;;11.76;100.00;99597.66;5007918;28;20398;-82
2022/09/17 05:26:22;;;;;;;10.82;4.00;;;;;;;11.71;100.00;99599.66;5002473;28;20050;-82
2022/09/17 05:28:49;;;;;;;12.30;4.45;;;;;;;11.69;100.00;99604.16;4992536;28;20041;-82
2022/09/17 05:31:16;;;;;;;11.85;5.05;;;;;;;11.70;100.00;99594.44;4985357;28;20100;-82
2022/09/17 05:33:42;;;;;;;11.15;4.20;;;;;;;11.74;100.00;99596.00;4988084;28;20042;-82
2022/09/17 05:36:09;;;;;;;13.38;4.70;;;;;;;11.66;100.00;99593.69;5007456;28;20049;-82
2022/09/17 05:38:36;;;;;;;11.73;4.60;;;;;;;11.68;100.00;99597.13;4998021;28;20095;-82
2022/09/17 05:41:05;;;;;;;10.48;4.57;;;;;;;11.65;100.00;99599.03;5009848;28;20042;-82
2022/09/17 05:43:32;;;;;;;11.68;5.13;;;;;;;11.63;100.00;99593.81;5008403;28;20056;-82
2022/09/17 05:46:03;;;;;;;10.45;4.35;;;;;;;11.76;100.00;99592.34;5011099;28;20490;-82
2022/09/17 05:48:30;;;;;;;7.93;4.28;;;;;;;11.70;100.00;99603.22;4995645;28;20041;-82
2022/09/17 05:50:57;;;;;;;7.68;3.92;;;;;;;11.73;100.00;99597.78;5012668;28;20041;-83
2022/09/17 05:53:23;;;;;;;11.48;4.35;;;;;;;11.75;100.00;99598.59;5004952;28;20096;-83
2022/09/17 05:55:50;;;;;;;8.93;4.22;;;;;;;11.71;100.00;99596.16;4996442;28;20067;-82
2022/09/17 05:58:18;;;;;;;12.25;4.22;;;;;;;11.68;100.00;99602.41;5001715;28;20095;-82
2022/09/17 06:00:47;;;;;;;15.07;3.90;;;;;;;11.76;100.00;99608.25;4994085;28;20053;-82
2022/09/17 06:03:15;;;;;;;14.30;4.18;;;;;;;11.83;100.00;99604.44;5006932;28;20049;-83
2022/09/17 06:05:43;;;;;;;7.57;3.53;;;;;;;11.88;100.00;99606.91;5011070;28;20128;-84
2022/09/17 06:08:10;;;;;;;8.77;4.18;;;;;;;11.90;100.00;99615.63;5000935;28;20089;-82
2022/09/17 06:10:37;;;;;;;10.82;3.95;;;;;;;11.97;100.00;99621.53;5011487;28;20049;-82
2022/09/17 06:13:04;;;;;;;13.32;4.38;;;;;;;12.10;100.00;99615.63;5001552;28;20580;-84
2022/09/17 06:15:31;;;;;;;11.85;3.90;;;;;;;12.09;100.00;99621.84;4997083;28;20038;-82
2022/09/17 06:17:58;;;;;;;10.60;3.70;;;;;;;12.07;100.00;99625.50;5035533;28;20052;-83
2022/09/17 06:20:25;;;;;;;9.43;3.50;;;;;;;12.12;100.00;99626.19;5024103;28;20446;-83
2022/09/17 06:22:56;;;;;;;8.27;3.38;;;;;;;12.15;100.00;99630.47;4998981;28;20457;-82
2022/09/17 06:25:23;;;;;;;9.50;3.85;;;;;;;12.30;100.00;99628.03;5000286;28;20479;-84
2022/09/17 06:27:50;;;;;;;8.73;4.25;;;;;;;12.34;100.00;99639.31;5000901;28;20030;-82
2022/09/17 06:30:17;;;;;;;12.30;3.80;;;;;;;12.39;100.00;99637.34;5013066;28;20461;-82
2022/09/17 06:32:43;;;;;;;9.88;3.45;;;;;;;12.43;100.00;99638.06;5027482;28;20034;-82
2022/09/17 06:35:10;;;;;;;13.00;3.55;;;;;;;12.46;100.00;99637.94;5015380;28;20045;-81
2022/09/17 06:37:39;;;;;;;8.10;3.40;;;;;;;12.44;100.00;99632.69;4995583;28;20037;-82
2022/09/17 06:40:07;;;;;;;10.10;4.07;;;;;;;12.36;100.00;99634.84;5017691;28;20098;-82
2022/09/17 06:42:33;;;;;;;13.90;3.97;;;;;;;12.55;100.00;99637.53;5001629;28;20051;-83
2022/09/17 06:45:00;;;;;;;9.32;4.00;;;;;;;12.63;100.00;99635.41;4997207;28;20057;-83
2022/09/17 06:47:34;;;;;;;12.18;3.50;;;;;;;12.46;100.00;99643.25;4996422;28;20505;-83
2022/09/17 06:50:01;;;;;;;12.35;5.22;;;;;;;12.61;100.00;99640.78;4999770;28;20164;-83
2022/09/17 06:52:28;;;;;;;8.65;3.10;;;;;;;12.65;100.00;99637.03;5027436;28;20052;-83
2022/09/17 06:54:55;;;;;;;12.07;3.63;;;;;;;12.69;100.00;99637.75;5030217;28;20045;-82
2022/09/17 06:57:22;;;;;;;11.63;4.30;;;;;;;12.74;100.00;99646.38;5026588;28;20050;-82
2022/09/17 06:59:49;;;;;;;10.32;4.85;;;;;;;12.84;100.00;99634.41;4995778;28;20034;-82
2022/09/17 07:02:15;;;;;;;10.02;4.47;;;;;;;12.99;100.00;99631.97;5013431;28;20414;-81
2022/09/17 07:04:42;;;;;;;11.82;4.00;;;;;;;13.00;100.00;99636.34;4993710;28;20068;-81
2022/09/17 07:07:09;;;;;;;10.40;3.85;;;;;;;13.06;100.00;99628.13;4997098;28;20037;-81
2022/09/17 07:09:35;;;;;;;11.88;4.00;;;;;;;13.24;100.00;99621.97;5009350;28;20037;-81
2022/09/17 07:12:06;;;;;;;11.73;3.95;;;;;;;13.47;100.00;99623.50;5006165;28;20052;-80
2022/09/17 07:14:33;;;;;;;12.40;4.15;;;;;;;13.75;100.00;99626.50;4992201;28;20052;-80
2022/09/17 07:17:00;;;;;;;6.88;3.42;;;;;;;13.76;100.00;99628.22;4994520;28;20049;-81
2022/09/17 07:19:27;;;;;;;8.30;4.00;;;;;;;13.66;100.00;99632.28;5007036;28;20042;-82
2022/09/17 07:21:53;;;;;;;12.50;4.07;;;;;;;13.56;100.00;99635.47;4993072;28;20556;-81
2022/09/17 07:24:20;;;;;;;11.15;3.50;;;;;;;13.32;100.00;99635.72;5028923;28;20045;-80
2022/09/17 07:26:49;;;;;;;8.10;3.35;;;;;;;13.14;100.00;99637.44;5020634;28;20064;-81
2022/09/17 07:29:16;;;;;;;12.05;3.25;;;;;;;12.94;100.00;99638.34;4994484;28;20040;-81
2022/09/17 07:31:42;;;;;;;8.73;3.50;;;;;;;12.92;100.00;99644.66;5010585;28;20044;-82
2022/09/17 07:34:09;;;;;;;10.98;3.97;;;;;;;12.94;100.00;99641.00;5008390;28;20044;-80
2022/09/17 07:36:36;;;;;;;10.02;3.88;;;;;;;12.99;100.00;99643.44;5010155;28;20402;-79
2022/09/17 07:39:02;;;;;;;11.43;4.38;;;;;;;12.82;100.00;99651.31;5011696;28;20478;-80
2022/09/17 07:41:29;;;;;;;12.07;4.28;;;;;;;12.99;100.00;99647.88;5019967;28;20042;-80
2022/09/17 07:43:56;;;;;;;12.45;4.07;;;;;;;13.02;100.00;99645.09;5011272;28;20068;-78
2022/09/17 07:46:22;;;;;;;10.60;3.47;;;;;;;13.00;100.00;99646.97;5026201;28;20048;-81
2022/09/17 07:48:50;;;;;;;14.48;4.82;;;;;;;12.84;100.00;99645.00;5012258;28;20033;-79
2022/09/17 07:51:22;;;;;;;10.05;4.25;;;;;;;12.76;100.00;99649.78;5026645;28;20041;-80
2022/09/17 07:53:53;;;;;;;14.68;5.25;;;;;;;12.67;100.00;99648.41;5023907;28;20040;-79
2022/09/17 07:56:20;;;;;;;12.35;4.50;;;;;;;12.71;100.00;99653.59;5025221;28;20050;-81
2022/09/17 07:58:47;;;;;;;7.57;3.67;;;;;;;12.69;100.00;99651.00;5024343;28;20047;-80
2022/09/17 08:01:15;;;;;;;9.43;3.38;;;;;;;12.85;100.00;99659.97;4992316;28;20064;-78
2022/09/17 08:03:46;;;;;;;11.13;3.90;;;;;;;12.89;100.00;99658.06;5016172;28;20038;-80
2022/09/17 08:06:15;;;;;;;16.25;5.75;;;;;;;12.98;100.00;99659.44;4985142;28;20049;-81
2022/09/17 08:08:42;;;;;;;8.73;4.45;;;;;;;12.91;100.00;99656.19;5009349;28;20068;-81
2022/09/17 08:11:15;;;;;;;16.58;5.03;;;;;;;12.97;100.00;99658.56;4988661;28;20539;-81
2022/09/17 08:14:04;;;;;;;11.05;4.13;;;;;;;13.13;100.00;99656.94;5000480;28;20128;-81
2022/09/17 08:16:30;;;;;;;13.68;5.07;;;;;;;13.26;100.00;99654.56;5024246;28;20103;-79
2022/09/17 08:18:57;;;;;;;10.85;4.28;;;;;;;13.24;100.00;99656.44;4992983;28;20048;-81
2022/09/17 08:21:26;;;;;;;16.02;4.25;;;;;;;13.27;100.00;99656.28;4994670;28;20049;-82
2022/09/17 08:23:54;;;;;;;12.77;4.82;;;;;;;13.40;100.00;99656.59;4991683;28;20049;-82
2022/09/17 08:26:22;;;;;;;11.93;4.70;;;;;;;13.21;100.00;99656.59;5022862;28;20479;-80
2022/09/17 08:28:51;;;;;;;12.07;4.53;;;;;;;13.08;100.00;99658.06;4995048;28;20555;-82
2022/09/17 08:31:18;;;;;;;13.68;5.40;;;;;;;13.14;100.00;99661.28;5044220;28;20052;-80
2022/09/17 08:33:46;;;;;;;12.13;6.47;;;;;;;13.00;100.00;99657.56;4997098;28;20080;-80
2022/09/17 08:36:14;;;;;;;9.23;4.25;;;;;;;13.04;100.00;99665.31;5024399;28;20545;-81
2022/09/17 08:38:41;;;;;;;11.25;4.03;;;;;;;13.17;100.00;99668.25;4993594;28;20037;-80
2022/09/17 08:41:22;;;;;;;15.90;4.88;;;;;;;13.21;100.00;99661.91;4993965;28;20453;-80
2022/09/17 08:44:07;;;;;;;11.48;4.15;;;;;;;13.39;100.00;99668.13;5024514;28;20133;-81
2022/09/17 08:46:46;;;;;;;11.35;4.07;;;;;;;13.45;100.00;99660.75;5016380;28;20042;-81
2022/09/17 08:49:35;;;;;;;12.85;4.03;;;;;;;13.52;100.00;99661.28;5028042;28;20045;-81
2022/09/17 08:52:16;;;;;;;11.40;3.80;;;;;;;13.67;100.00;99663.19;5008038;28;20068;-79
2022/09/17 08:54:52;;;;;;;14.00;4.28;;;;;;;13.72;100.00;99663.84;5008527;28;20101;-84
2022/09/17 08:57:37;;;;;;;9.55;3.70;;;;;;;13.70;100.00;99667.47;4991460;28;20477;-84
2022/09/17 09:00:15;;;;;;;;;;;;;;;13.70;100.00;99656.88;5021520;28;20080;-84
2022/09/17 09:03:07;;;;;;;10.95;3.83;;;;;;;13.88;100.00;99653.31;5004482;28;20402;-83
2022/09/17 09:05:44;;;;;;;13.00;4.07;;;;;;;13.90;100.00;99654.09;5002422;28;20037;-84
2022/09/17 09:08:21;;;;;;;13.32;3.08;;;;;;;13.73;100.00;99654.09;4992194;28;20052;-85
2022/09/17 09:10:51;;;;;;;9.65;3.45;;;;;;;13.87;100.00;99659.53;5008248;28;20120;-85
2022/09/17 09:13:20;;;;;;;8.68;3.65;;;;;;;14.02;100.00;99663.22;5005830;28;20052;-85
2022/09/17 09:15:59;;;;;;;9.30;3.55;;;;;;;13.94;100.00;99654.78;5009242;28;20045;-84
2022/09/17 09:18:33;;;;;;;9.93;3.53;;;;;;;13.94;100.00;99655.66;4991406;28;20113;-84
2022/09/17 09:21:26;;;;;;;10.57;3.10;;;;;;;13.31;100.00;99663.19;4987129;28;20058;-82
2022/09/17 09:23:57;;;;;;;7.07;3.38;;;;;;;13.51;100.00;99662.22;4988303;28;20042;-84
2022/09/17 09:26:39;;;;;;;9.95;3.47;;;;;;;13.63;100.00;99664.28;5025419;28;20041;-84
2022/09/17 09:29:40;;;;;;;8.40;3.92;;;;;;;13.69;100.00;99669.28;5008114;28;20038;-82
2022/09/17 09:32:44;;;;;;;9.23;3.47;;;;;;;13.71;100.00;99663.94;5046329;28;20037;-83
2022/09/17 09:35:29;;;;;;;9.75;3.88;;;;;;;13.28;100.00;99670.41;5021326;28;20527;-84
2022/09/17 09:38:02;;;;;;;10.95;3.83;;;;;;;13.33;100.00;99686.97;4992999;28;20049;-81
2022/09/17 09:40:54;;;;;;;11.00;3.63;;;;;;;13.35;100.00;99685.97;5003943;28;20042;-84
2022/09/17 09:43:42;;;;;;;9.48;3.35;;;;;;;13.39;100.00;99682.25;5020417;28;20042;-83
2022/09/17 09:47:06;;;;;;;9.65;3.22;;;;;;;13.38;100.00;99691.16;5018982;28;20068;-83
2022/09/17 09:49:45;;;;;;;8.55;2.85;;;;;;;13.47;100.00;99693.38;4999637;28;20034;-85
2022/09/17 09:52:31;;;;;;;9.13;3.65;;;;;;;13.52;100.00;99701.09;5021220;28;20112;-84
2022/09/17 09:55:09;;;;;;;8.35;3.53;;;;;;;13.62;100.00;99694.44;5038040;28;20042;-86
2022/09/17 09:57:46;;;;;;;10.70;3.15;;;;;;;13.76;100.00;99693.75;5007864;28;20720;-84
2022/09/17 10:00:37;;;;;;;10.00;3.63;;;;;;;13.86;100.00;99697.66;5027905;28;20053;-82
2022/09/17 10:03:20;;;;;;;10.18;3.70;;;;;;;14.12;100.00;99696.34;5003636;28;20498;-82
2022/09/17 10:06:09;;;;;;;10.40;3.50;;;;;;;14.14;100.00;99689.19;5006537;28;21069;-84
2022/09/17 10:08:38;;;;;;;11.13;3.00;;;;;;;14.40;100.00;99695.84;5008125;28;20037;-85
2022/09/17 10:11:19;;;;;;;11.48;3.85;;;;;;;14.58;100.00;99708.19;5004220;28;20037;-87
2022/09/17 10:13:46;;;;;;;14.77;3.78;;;;;;;14.72;100.00;99701.31;4990420;28;20037;-84
2022/09/17 10:16:34;;;;;;;9.50;3.40;;;;;;;14.77;100.00;99704.56;5001793;28;20052;-85
2022/09/17 10:19:06;;;;;;;9.85;3.20;;;;;;;14.63;99.65;99706.16;5006861;28;20131;-84
2022/09/17 10:21:38;;;;;;;7.00;2.78;;;;;;;14.42;100.00;99699.25;5006337;28;20093;-82
2022/09/17 10:24:26;;;;;;;9.23;3.60;;;;;;;14.57;100.00;99698.50;5014015;28;20049;-83
2022/09/17 10:27:10;;;;;;;10.77;4.18;;;;;;;14.66;100.00;99704.28;5004099;28;20042;-86
2022/09/17 10:29:42;;;;;;;10.50;3.25;;;;;;;14.65;100.00;99698.09;5008147;28;20042;-84
2022/09/17 10:32:14;;;;;;;8.63;2.88;;;;;;;14.75;100.00;99693.16;5022630;28;20080;-85
2022/09/17 10:34:42;;;;;;;8.60;2.92;;;;;;;14.86;100.00;99691.63;4995591;28;20487;-84
2022/09/17 10:37:42;;;;;;;8.00;3.20;;;;;;;14.98;100.00;99691.94;4993052;28;20045;-84
2022/09/17 10:40:18;;;;;;;8.82;2.88;;;;;;;14.70;94.82;99688.06;5001245;28;20061;-86
2022/09/17 10:42:46;;;;;;;10.60;3.03;;;;;;;14.90;99.77;99695.88;5042928;28;20099;-84
2022/09/17 10:45:27;;;;;;;6.88;2.75;;;;;;;14.81;96.28;99698.16;4994440;28;20065;-84
2022/09/17 10:47:55;;;;;;;10.40;2.90;;;;;;;15.09;100.00;99695.72;4995682;28;20375;-83
2022/09/17 10:50:33;;;;;;;9.73;4.07;;;;;;;15.18;97.95;99687.25;5010388;28;20490;-85
2022/09/17 10:53:03;;;;;;;10.55;3.72;;;;;;;15.38;95.71;99680.81;5010834;28;20103;-81
2022/09/17 10:55:51;;;;;;;13.30;2.90;;;;;;;15.47;91.16;99687.44;5028099;28;20041;-83
2022/09/17 10:58:51;;;;;;;10.70;3.35;;;;;;;15.57;91.59;99680.66;5004346;28;20038;-85
2022/09/17 11:01:33;;;;;;;11.85;2.80;;;;;;;15.43;86.92;99683.22;4990333;28;20069;-83
2022/09/17 11:04:10;;;;;;;9.45;3.13;;;;;;;15.53;84.42;99679.09;4996257;28;20498;-83
2022/09/17 11:06:41;;;;;;;9.82;2.70;;;;;;;15.61;83.80;99684.88;4992490;28;20430;-85
2022/09/17 11:09:22;;;;;;;10.45;3.47;;;;;;;15.76;88.01;99688.47;5017261;28;20040;-85
2022/09/17 11:12:23;;;;;;;4.55;2.50;;;;;;;16.03;83.69;99686.03;5026585;28;20037;-82
2022/09/17 11:14:58;;;;;;;8.90;3.30;;;;;;;16.20;77.44;99675.22;5028945;28;20038;-85
2022/09/17 11:17:48;;;;;;;9.27;2.40;;;;;;;15.89;78.44;99680.63;4995904;28;20095;-84
2022/09/17 11:20:40;;;;;;;9.43;2.97;;;;;;;15.96;81.29;99690.84;5028081;28;20060;-86
2022/09/17 11:23:26;;;;;;;7.38;3.22;;;;;;;15.91;81.03;99690.25;5028666;28;20046;-83
2022/09/17 11:26:16;;;;;;;6.75;2.17;;;;;;;15.69;82.61;99687.97;5026816;28;20065;-84
2022/09/17 11:28:49;;;;;;;7.68;2.22;;;;;;;15.71;82.30;99702.03;5017826;28;20080;-84
2022/09/17 11:31:27;;;;;;;6.65;2.33;;;;;;;15.71;81.44;99691.38;5022094;28;20038;-82
2022/09/17 11:34:21;;;;;;;4.55;1.85;;;;;;;15.81;81.48;99694.41;5026404;28;20038;-84
2022/09/17 11:37:01;;;;;;;10.75;2.63;;;;;;;15.77;80.38;99691.03;5004174;28;20033;-85
2022/09/17 11:39:38;;;;;;;8.52;2.60;;;;;;;16.05;79.77;99697.44;5021978;28;20041;-83
2022/09/17 11:42:08;;;;;;;7.45;2.00;;;;;;;16.08;74.21;99693.75;5021087;28;20453;-83
2022/09/17 11:44:40;;;;;;;7.15;2.47;;;;;;;16.53;78.11;99692.81;4989679;28;20499;-84
2022/09/17 11:47:15;;;;;;;8.82;2.53;;;;;;;16.84;76.59;99697.19;5007712;28;20045;-86
2022/09/17 11:49:51;;;;;;;4.20;2.15;;;;;;;16.98;69.91;99704.31;5008954;28;20503;-82